sensor_id;sensor_type;location;lat;lon;timestamp;P1;durP1;ratioP1;P2;durP2;ratioP2
71800;SDS011;59647;55.838;37.292;2023-06-26T00:00:21;12.65;;;7.55;;
71800;SDS011;59647;55.838;37.292;2023-06-26T00:02:47;13.93;;;7.43;;
71800;SDS011;59647;55.838;37.292;2023-06-26T00:05:13;15.57;;;7.80;;
71800;SDS011;59647;55.838;37.292;2023-06-26T00:07:39;15.07;;;6.97;;
71800;SDS011;59647;55.838;37.292;2023-06-26T00:10:05;14.18;;;6.53;;
71800;SDS011;59647;55.838;37.292;2023-06-26T00:12:32;13.77;;;7.07;;
71800;SDS011;59647;55.838;37.292;2023-06-26T00:15:00;16.45;;;7.93;;
71800;SDS011;59647;55.838;37.292;2023-06-26T00:17:26;15.05;;;7.75;;
71800;SDS011;59647;55.838;37.292;2023-06-26T00:19:52;14.10;;;8.00;;
71800;SDS011;59647;55.838;37.292;2023-06-26T00:22:18;15.98;;;8.30;;
71800;SDS011;59647;55.838;37.292;2023-06-26T00:24:45;11.23;;;7.05;;
71800;SDS011;59647;55.838;37.292;2023-06-26T00:27:11;16.85;;;7.97;;
71800;SDS011;59647;55.838;37.292;2023-06-26T00:29:37;12.43;;;7.03;;
71800;SDS011;59647;55.838;37.292;2023-06-26T00:32:04;14.20;;;7.70;;
71800;SDS011;59647;55.838;37.292;2023-06-26T00:34:33;17.52;;;7.05;;
71800;SDS011;59647;55.838;37.292;2023-06-26T00:36:59;23.98;;;7.57;;
71800;SDS011;59647;55.838;37.292;2023-06-26T00:39:26;11.75;;;7.22;;
71800;SDS011;59647;55.838;37.292;2023-06-26T00:41:52;23.73;;;8.18;;
71800;SDS011;59647;55.838;37.292;2023-06-26T00:44:21;22.67;;;8.05;;
71800;SDS011;59647;55.838;37.292;2023-06-26T00:46:47;18.70;;;7.85;;
71800;SDS011;59647;55.838;37.292;2023-06-26T00:49:14;12.43;;;6.68;;
71800;SDS011;59647;55.838;37.292;2023-06-26T00:51:41;21.67;;;8.45;;
71800;SDS011;59647;55.838;37.292;2023-06-26T00:54:07;16.88;;;8.73;;
71800;SDS011;59647;55.838;37.292;2023-06-26T00:56:33;22.98;;;10.98;;
71800;SDS011;59647;55.838;37.292;2023-06-26T00:59:00;20.95;;;10.25;;
71800;SDS011;59647;55.838;37.292;2023-06-26T01:01:26;28.83;;;10.32;;
71800;SDS011;59647;55.838;37.292;2023-06-26T01:03:53;21.30;;;8.90;;
71800;SDS011;59647;55.838;37.292;2023-06-26T01:06:21;18.52;;;8.40;;
71800;SDS011;59647;55.838;37.292;2023-06-26T01:08:48;16.50;;;8.63;;
71800;SDS011;59647;55.838;37.292;2023-06-26T01:11:17;14.35;;;8.10;;
71800;SDS011;59647;55.838;37.292;2023-06-26T01:13:44;18.40;;;9.65;;
71800;SDS011;59647;55.838;37.292;2023-06-26T01:16:10;20.38;;;9.95;;
71800;SDS011;59647;55.838;37.292;2023-06-26T01:18:38;22.48;;;9.93;;
71800;SDS011;59647;55.838;37.292;2023-06-26T01:21:11;27.65;;;9.93;;
71800;SDS011;59647;55.838;37.292;2023-06-26T01:24:02;25.80;;;10.43;;
71800;SDS011;59647;55.838;37.292;2023-06-26T01:26:35;17.92;;;8.60;;
71800;SDS011;59647;55.838;37.292;2023-06-26T01:29:02;28.13;;;9.95;;
71800;SDS011;59647;55.838;37.292;2023-06-26T01:31:31;17.60;;;8.02;;
71800;SDS011;59647;55.838;37.292;2023-06-26T01:34:01;19.98;;;8.02;;
71800;SDS011;59647;55.838;37.292;2023-06-26T01:36:27;15.98;;;8.25;;
71800;SDS011;59647;55.838;37.292;2023-06-26T01:38:53;16.13;;;9.00;;
71800;SDS011;59647;55.838;37.292;2023-06-26T01:41:19;18.15;;;8.27;;
71800;SDS011;59647;55.838;37.292;2023-06-26T01:44:01;17.88;;;9.02;;
71800;SDS011;59647;55.838;37.292;2023-06-26T01:52:20;28.38;;;9.32;;
71800;SDS011;59647;55.838;37.292;2023-06-26T01:57:26;19.38;;;8.75;;
71800;SDS011;59647;55.838;37.292;2023-06-26T01:59:54;16.88;;;8.27;;
71800;SDS011;59647;55.838;37.292;2023-06-26T02:02:23;22.05;;;10.05;;
71800;SDS011;59647;55.838;37.292;2023-06-26T02:04:50;33.08;;;11.48;;
71800;SDS011;59647;55.838;37.292;2023-06-26T02:07:16;19.92;;;8.70;;
71800;SDS011;59647;55.838;37.292;2023-06-26T02:09:42;19.80;;;10.20;;
71800;SDS011;59647;55.838;37.292;2023-06-26T02:12:09;26.45;;;9.88;;
71800;SDS011;59647;55.838;37.292;2023-06-26T02:14:36;16.95;;;9.48;;
71800;SDS011;59647;55.838;37.292;2023-06-26T02:17:02;15.95;;;8.80;;
71800;SDS011;59647;55.838;37.292;2023-06-26T02:19:28;21.95;;;9.65;;
71800;SDS011;59647;55.838;37.292;2023-06-26T02:21:54;23.63;;;9.50;;
71800;SDS011;59647;55.838;37.292;2023-06-26T02:24:22;23.33;;;9.63;;
71800;SDS011;59647;55.838;37.292;2023-06-26T02:26:48;17.45;;;8.85;;
71800;SDS011;59647;55.838;37.292;2023-06-26T02:29:14;15.50;;;8.75;;
71800;SDS011;59647;55.838;37.292;2023-06-26T02:31:40;22.63;;;10.05;;
71800;SDS011;59647;55.838;37.292;2023-06-26T02:34:06;22.90;;;9.70;;
71800;SDS011;59647;55.838;37.292;2023-06-26T02:36:33;24.02;;;9.60;;
71800;SDS011;59647;55.838;37.292;2023-06-26T02:38:59;21.02;;;8.90;;
71800;SDS011;59647;55.838;37.292;2023-06-26T02:41:26;20.05;;;9.10;;
71800;SDS011;59647;55.838;37.292;2023-06-26T02:43:52;16.15;;;8.10;;
71800;SDS011;59647;55.838;37.292;2023-06-26T02:46:18;20.85;;;8.50;;
71800;SDS011;59647;55.838;37.292;2023-06-26T02:48:44;15.45;;;8.20;;
71800;SDS011;59647;55.838;37.292;2023-06-26T02:51:10;16.98;;;8.63;;
71800;SDS011;59647;55.838;37.292;2023-06-26T02:53:36;23.85;;;9.15;;
71800;SDS011;59647;55.838;37.292;2023-06-26T02:56:04;16.67;;;8.60;;
71800;SDS011;59647;55.838;37.292;2023-06-26T02:58:30;22.27;;;8.57;;
71800;SDS011;59647;55.838;37.292;2023-06-26T03:00:56;25.90;;;9.57;;
71800;SDS011;59647;55.838;37.292;2023-06-26T03:03:22;15.10;;;8.85;;
71800;SDS011;59647;55.838;37.292;2023-06-26T03:05:49;15.57;;;8.35;;
71800;SDS011;59647;55.838;37.292;2023-06-26T03:08:14;12.88;;;7.97;;
71800;SDS011;59647;55.838;37.292;2023-06-26T03:10:41;21.38;;;9.05;;
71800;SDS011;59647;55.838;37.292;2023-06-26T03:13:08;21.02;;;9.25;;
71800;SDS011;59647;55.838;37.292;2023-06-26T03:15:34;15.90;;;8.82;;
71800;SDS011;59647;55.838;37.292;2023-06-26T03:17:59;16.77;;;8.75;;
71800;SDS011;59647;55.838;37.292;2023-06-26T03:20:28;20.35;;;10.15;;
71800;SDS011;59647;55.838;37.292;2023-06-26T03:22:55;19.33;;;10.40;;
71800;SDS011;59647;55.838;37.292;2023-06-26T03:25:22;21.77;;;9.43;;
71800;SDS011;59647;55.838;37.292;2023-06-26T03:27:54;19.65;;;8.63;;
71800;SDS011;59647;55.838;37.292;2023-06-26T03:30:20;15.52;;;8.00;;
71800;SDS011;59647;55.838;37.292;2023-06-26T03:32:49;20.77;;;9.45;;
71800;SDS011;59647;55.838;37.292;2023-06-26T03:35:16;19.50;;;9.15;;
71800;SDS011;59647;55.838;37.292;2023-06-26T03:37:42;17.45;;;8.77;;
71800;SDS011;59647;55.838;37.292;2023-06-26T03:40:08;18.67;;;8.68;;
71800;SDS011;59647;55.838;37.292;2023-06-26T03:42:36;18.60;;;9.93;;
71800;SDS011;59647;55.838;37.292;2023-06-26T03:45:03;15.63;;;9.48;;
71800;SDS011;59647;55.838;37.292;2023-06-26T03:47:30;19.33;;;10.05;;
71800;SDS011;59647;55.838;37.292;2023-06-26T03:49:56;22.10;;;11.43;;
71800;SDS011;59647;55.838;37.292;2023-06-26T03:52:22;25.42;;;11.32;;
71800;SDS011;59647;55.838;37.292;2023-06-26T03:54:49;27.75;;;11.32;;
71800;SDS011;59647;55.838;37.292;2023-06-26T03:57:16;21.50;;;11.63;;
71800;SDS011;59647;55.838;37.292;2023-06-26T03:59:42;25.33;;;12.55;;
71800;SDS011;59647;55.838;37.292;2023-06-26T04:02:08;20.17;;;11.20;;
71800;SDS011;59647;55.838;37.292;2023-06-26T04:04:34;25.20;;;11.30;;
71800;SDS011;59647;55.838;37.292;2023-06-26T04:07:01;28.30;;;10.55;;
71800;SDS011;59647;55.838;37.292;2023-06-26T04:09:27;20.05;;;10.02;;
71800;SDS011;59647;55.838;37.292;2023-06-26T04:11:53;24.05;;;10.13;;
71800;SDS011;59647;55.838;37.292;2023-06-26T04:14:19;27.52;;;13.40;;
71800;SDS011;59647;55.838;37.292;2023-06-26T04:16:45;28.35;;;13.70;;
71800;SDS011;59647;55.838;37.292;2023-06-26T04:19:11;26.83;;;11.68;;
71800;SDS011;59647;55.838;37.292;2023-06-26T04:21:37;28.55;;;13.52;;
71800;SDS011;59647;55.838;37.292;2023-06-26T04:24:03;25.77;;;12.32;;
71800;SDS011;59647;55.838;37.292;2023-06-26T04:26:29;26.08;;;13.05;;
71800;SDS011;59647;55.838;37.292;2023-06-26T04:28:55;29.25;;;13.98;;
71800;SDS011;59647;55.838;37.292;2023-06-26T04:31:21;29.05;;;13.30;;
71800;SDS011;59647;55.838;37.292;2023-06-26T04:33:47;27.98;;;13.57;;
71800;SDS011;59647;55.838;37.292;2023-06-26T04:36:19;26.02;;;13.70;;
71800;SDS011;59647;55.838;37.292;2023-06-26T04:38:45;29.70;;;13.65;;
71800;SDS011;59647;55.838;37.292;2023-06-26T04:41:10;23.65;;;12.82;;
71800;SDS011;59647;55.838;37.292;2023-06-26T04:43:36;33.88;;;13.00;;
71800;SDS011;59647;55.838;37.292;2023-06-26T04:46:02;28.77;;;13.40;;
71800;SDS011;59647;55.838;37.292;2023-06-26T04:48:28;25.73;;;14.57;;
71800;SDS011;59647;55.838;37.292;2023-06-26T04:50:56;25.70;;;13.82;;
71800;SDS011;59647;55.838;37.292;2023-06-26T04:53:24;35.40;;;14.07;;
71800;SDS011;59647;55.838;37.292;2023-06-26T04:55:51;29.30;;;14.40;;
71800;SDS011;59647;55.838;37.292;2023-06-26T04:58:18;38.15;;;12.82;;
71800;SDS011;59647;55.838;37.292;2023-06-26T05:00:44;26.73;;;12.85;;
71800;SDS011;59647;55.838;37.292;2023-06-26T05:03:11;22.40;;;11.77;;
71800;SDS011;59647;55.838;37.292;2023-06-26T05:05:38;20.45;;;11.50;;
71800;SDS011;59647;55.838;37.292;2023-06-26T05:08:23;20.95;;;10.10;;
71800;SDS011;59647;55.838;37.292;2023-06-26T05:10:51;19.00;;;9.95;;
71800;SDS011;59647;55.838;37.292;2023-06-26T05:13:18;21.00;;;10.02;;
71800;SDS011;59647;55.838;37.292;2023-06-26T05:15:45;16.88;;;8.80;;
71800;SDS011;59647;55.838;37.292;2023-06-26T05:18:12;23.75;;;8.50;;
71800;SDS011;59647;55.838;37.292;2023-06-26T05:20:38;14.57;;;8.45;;
71800;SDS011;59647;55.838;37.292;2023-06-26T05:23:04;17.25;;;7.82;;
71800;SDS011;59647;55.838;37.292;2023-06-26T05:25:31;15.70;;;7.28;;
71800;SDS011;59647;55.838;37.292;2023-06-26T05:27:59;17.02;;;7.82;;
71800;SDS011;59647;55.838;37.292;2023-06-26T05:30:26;12.38;;;6.38;;
71800;SDS011;59647;55.838;37.292;2023-06-26T05:32:53;16.10;;;6.47;;
71800;SDS011;59647;55.838;37.292;2023-06-26T05:35:20;13.77;;;6.70;;
71800;SDS011;59647;55.838;37.292;2023-06-26T05:37:49;11.07;;;6.57;;
71800;SDS011;59647;55.838;37.292;2023-06-26T05:40:17;22.40;;;7.50;;
71800;SDS011;59647;55.838;37.292;2023-06-26T05:42:45;11.50;;;5.97;;
71800;SDS011;59647;55.838;37.292;2023-06-26T05:45:11;14.65;;;6.90;;
71800;SDS011;59647;55.838;37.292;2023-06-26T05:47:38;12.55;;;7.03;;
71800;SDS011;59647;55.838;37.292;2023-06-26T05:50:04;13.30;;;7.70;;
71800;SDS011;59647;55.838;37.292;2023-06-26T05:52:30;12.02;;;5.57;;
71800;SDS011;59647;55.838;37.292;2023-06-26T05:54:56;20.65;;;7.45;;
71800;SDS011;59647;55.838;37.292;2023-06-26T05:57:28;16.45;;;6.63;;
71800;SDS011;59647;55.838;37.292;2023-06-26T05:59:56;11.40;;;6.30;;
71800;SDS011;59647;55.838;37.292;2023-06-26T06:02:22;9.30;;;5.57;;
71800;SDS011;59647;55.838;37.292;2023-06-26T06:04:49;11.95;;;5.75;;
71800;SDS011;59647;55.838;37.292;2023-06-26T06:07:15;13.50;;;5.97;;
71800;SDS011;59647;55.838;37.292;2023-06-26T06:09:41;9.65;;;5.60;;
71800;SDS011;59647;55.838;37.292;2023-06-26T06:12:07;7.78;;;5.15;;
71800;SDS011;59647;55.838;37.292;2023-06-26T06:14:34;12.45;;;6.07;;
71800;SDS011;59647;55.838;37.292;2023-06-26T06:17:00;12.95;;;5.18;;
71800;SDS011;59647;55.838;37.292;2023-06-26T06:19:27;10.15;;;5.82;;
71800;SDS011;59647;55.838;37.292;2023-06-26T06:21:53;10.85;;;4.47;;
71800;SDS011;59647;55.838;37.292;2023-06-26T06:24:19;9.32;;;4.85;;
71800;SDS011;59647;55.838;37.292;2023-06-26T06:26:45;7.60;;;4.50;;
71800;SDS011;59647;55.838;37.292;2023-06-26T06:29:11;10.00;;;5.18;;
71800;SDS011;59647;55.838;37.292;2023-06-26T06:31:37;7.85;;;4.80;;
71800;SDS011;59647;55.838;37.292;2023-06-26T06:34:03;10.60;;;4.88;;
71800;SDS011;59647;55.838;37.292;2023-06-26T06:36:29;7.40;;;4.35;;
71800;SDS011;59647;55.838;37.292;2023-06-26T06:38:55;6.80;;;4.45;;
71800;SDS011;59647;55.838;37.292;2023-06-26T06:41:22;9.05;;;3.95;;
71800;SDS011;59647;55.838;37.292;2023-06-26T06:43:48;17.20;;;4.55;;
71800;SDS011;59647;55.838;37.292;2023-06-26T06:46:14;6.43;;;3.95;;
71800;SDS011;59647;55.838;37.292;2023-06-26T06:48:40;5.57;;;3.95;;
71800;SDS011;59647;55.838;37.292;2023-06-26T06:51:06;8.27;;;4.07;;
71800;SDS011;59647;55.838;37.292;2023-06-26T06:53:32;6.75;;;4.28;;
71800;SDS011;59647;55.838;37.292;2023-06-26T06:55:57;6.57;;;3.72;;
71800;SDS011;59647;55.838;37.292;2023-06-26T06:58:23;13.68;;;3.67;;
71800;SDS011;59647;55.838;37.292;2023-06-26T07:00:49;5.32;;;3.88;;
71800;SDS011;59647;55.838;37.292;2023-06-26T07:03:17;9.35;;;4.07;;
71800;SDS011;59647;55.838;37.292;2023-06-26T07:05:44;8.23;;;4.70;;
71800;SDS011;59647;55.838;37.292;2023-06-26T07:08:10;7.15;;;4.22;;
71800;SDS011;59647;55.838;37.292;2023-06-26T07:10:36;7.03;;;4.20;;
71800;SDS011;59647;55.838;37.292;2023-06-26T07:13:02;8.20;;;4.32;;
71800;SDS011;59647;55.838;37.292;2023-06-26T07:15:28;6.25;;;3.95;;
71800;SDS011;59647;55.838;37.292;2023-06-26T07:17:54;6.15;;;3.90;;
71800;SDS011;59647;55.838;37.292;2023-06-26T07:20:20;6.90;;;3.80;;
71800;SDS011;59647;55.838;37.292;2023-06-26T07:22:45;7.05;;;3.53;;
71800;SDS011;59647;55.838;37.292;2023-06-26T07:25:12;6.35;;;4.03;;
71800;SDS011;59647;55.838;37.292;2023-06-26T07:27:39;5.80;;;3.83;;
71800;SDS011;59647;55.838;37.292;2023-06-26T07:30:06;8.10;;;3.17;;
71800;SDS011;59647;55.838;37.292;2023-06-26T07:32:37;9.70;;;4.10;;
71800;SDS011;59647;55.838;37.292;2023-06-26T07:35:03;6.45;;;3.35;;
71800;SDS011;59647;55.838;37.292;2023-06-26T07:37:31;7.03;;;4.45;;
71800;SDS011;59647;55.838;37.292;2023-06-26T07:39:57;10.23;;;3.97;;
71800;SDS011;59647;55.838;37.292;2023-06-26T07:42:23;11.27;;;4.70;;
71800;SDS011;59647;55.838;37.292;2023-06-26T07:44:49;6.70;;;4.00;;
71800;SDS011;59647;55.838;37.292;2023-06-26T07:47:15;4.82;;;3.22;;
71800;SDS011;59647;55.838;37.292;2023-06-26T07:49:41;5.78;;;3.80;;
71800;SDS011;59647;55.838;37.292;2023-06-26T07:52:07;6.78;;;4.05;;
71800;SDS011;59647;55.838;37.292;2023-06-26T07:54:35;5.88;;;3.95;;
71800;SDS011;59647;55.838;37.292;2023-06-26T07:57:02;5.32;;;3.53;;
71800;SDS011;59647;55.838;37.292;2023-06-26T07:59:32;8.40;;;4.05;;
71800;SDS011;59647;55.838;37.292;2023-06-26T08:01:59;10.88;;;3.90;;
71800;SDS011;59647;55.838;37.292;2023-06-26T08:04:26;7.10;;;3.90;;
71800;SDS011;59647;55.838;37.292;2023-06-26T08:06:54;6.00;;;3.78;;
71800;SDS011;59647;55.838;37.292;2023-06-26T08:09:22;7.40;;;4.50;;
71800;SDS011;59647;55.838;37.292;2023-06-26T08:11:50;5.75;;;3.60;;
71800;SDS011;59647;55.838;37.292;2023-06-26T08:14:16;6.75;;;4.43;;
71800;SDS011;59647;55.838;37.292;2023-06-26T08:16:42;6.80;;;3.85;;
71800;SDS011;59647;55.838;37.292;2023-06-26T08:19:10;7.55;;;4.25;;
71800;SDS011;59647;55.838;37.292;2023-06-26T08:21:36;10.68;;;4.28;;
71800;SDS011;59647;55.838;37.292;2023-06-26T08:24:02;7.38;;;4.13;;
71800;SDS011;59647;55.838;37.292;2023-06-26T08:26:28;8.15;;;5.03;;
71800;SDS011;59647;55.838;37.292;2023-06-26T08:28:54;7.13;;;4.90;;
71800;SDS011;59647;55.838;37.292;2023-06-26T08:31:20;9.10;;;4.32;;
71800;SDS011;59647;55.838;37.292;2023-06-26T08:33:46;8.98;;;4.63;;
71800;SDS011;59647;55.838;37.292;2023-06-26T08:36:12;6.32;;;3.72;;
71800;SDS011;59647;55.838;37.292;2023-06-26T08:38:38;6.53;;;4.32;;
71800;SDS011;59647;55.838;37.292;2023-06-26T08:41:07;7.35;;;4.53;;
71800;SDS011;59647;55.838;37.292;2023-06-26T08:43:34;7.28;;;3.70;;
71800;SDS011;59647;55.838;37.292;2023-06-26T08:46:00;6.65;;;3.75;;
71800;SDS011;59647;55.838;37.292;2023-06-26T08:48:27;11.95;;;4.40;;
71800;SDS011;59647;55.838;37.292;2023-06-26T08:50:57;6.93;;;3.92;;
71800;SDS011;59647;55.838;37.292;2023-06-26T08:56:22;13.60;;;4.93;;
71800;SDS011;59647;55.838;37.292;2023-06-26T08:58:50;7.65;;;4.68;;
71800;SDS011;59647;55.838;37.292;2023-06-26T09:01:17;11.40;;;4.95;;
71800;SDS011;59647;55.838;37.292;2023-06-26T09:03:44;10.05;;;4.03;;
71800;SDS011;59647;55.838;37.292;2023-06-26T09:06:10;6.53;;;4.22;;
71800;SDS011;59647;55.838;37.292;2023-06-26T09:08:36;9.13;;;3.95;;
71800;SDS011;59647;55.838;37.292;2023-06-26T09:11:02;7.15;;;4.40;;
71800;SDS011;59647;55.838;37.292;2023-06-26T09:13:28;7.35;;;4.75;;
71800;SDS011;59647;55.838;37.292;2023-06-26T09:15:56;6.10;;;3.85;;
71800;SDS011;59647;55.838;37.292;2023-06-26T09:18:22;7.32;;;4.05;;
71800;SDS011;59647;55.838;37.292;2023-06-26T09:20:48;6.53;;;3.88;;
71800;SDS011;59647;55.838;37.292;2023-06-26T09:23:15;7.85;;;4.03;;
71800;SDS011;59647;55.838;37.292;2023-06-26T09:25:41;10.43;;;4.80;;
71800;SDS011;59647;55.838;37.292;2023-06-26T09:28:10;7.25;;;4.38;;
71800;SDS011;59647;55.838;37.292;2023-06-26T09:30:36;9.52;;;4.78;;
71800;SDS011;59647;55.838;37.292;2023-06-26T09:35:44;14.45;;;3.83;;
71800;SDS011;59647;55.838;37.292;2023-06-26T09:38:14;5.97;;;3.85;;
71800;SDS011;59647;55.838;37.292;2023-06-26T09:40:43;11.38;;;4.50;;
71800;SDS011;59647;55.838;37.292;2023-06-26T09:43:12;8.85;;;4.78;;
71800;SDS011;59647;55.838;37.292;2023-06-26T09:45:39;6.60;;;4.38;;
71800;SDS011;59647;55.838;37.292;2023-06-26T09:48:06;8.18;;;3.95;;
71800;SDS011;59647;55.838;37.292;2023-06-26T09:50:35;7.38;;;4.78;;
71800;SDS011;59647;55.838;37.292;2023-06-26T09:53:08;10.40;;;5.20;;
71800;SDS011;59647;55.838;37.292;2023-06-26T09:55:40;7.45;;;4.03;;
71800;SDS011;59647;55.838;37.292;2023-06-26T09:58:10;7.32;;;4.25;;
71800;SDS011;59647;55.838;37.292;2023-06-26T10:00:42;11.35;;;4.40;;
71800;SDS011;59647;55.838;37.292;2023-06-26T10:03:12;11.60;;;4.50;;
71800;SDS011;59647;55.838;37.292;2023-06-26T10:05:39;10.80;;;4.35;;
71800;SDS011;59647;55.838;37.292;2023-06-26T10:08:06;10.85;;;4.80;;
71800;SDS011;59647;55.838;37.292;2023-06-26T10:10:35;10.32;;;5.13;;
71800;SDS011;59647;55.838;37.292;2023-06-26T10:13:13;15.18;;;4.45;;
71800;SDS011;59647;55.838;37.292;2023-06-26T10:15:43;9.55;;;4.30;;
71800;SDS011;59647;55.838;37.292;2023-06-26T10:18:11;11.77;;;4.60;;
71800;SDS011;59647;55.838;37.292;2023-06-26T10:20:38;12.35;;;5.07;;
71800;SDS011;59647;55.838;37.292;2023-06-26T10:23:05;10.02;;;5.20;;
71800;SDS011;59647;55.838;37.292;2023-06-26T10:25:34;7.80;;;4.28;;
71800;SDS011;59647;55.838;37.292;2023-06-26T10:28:06;15.98;;;4.70;;
71800;SDS011;59647;55.838;37.292;2023-06-26T10:30:34;6.63;;;4.30;;
71800;SDS011;59647;55.838;37.292;2023-06-26T10:33:02;13.02;;;5.68;;
71800;SDS011;59647;55.838;37.292;2023-06-26T10:35:30;8.40;;;5.13;;
71800;SDS011;59647;55.838;37.292;2023-06-26T10:38:00;12.43;;;5.20;;
71800;SDS011;59647;55.838;37.292;2023-06-26T10:43:08;16.42;;;5.88;;
71800;SDS011;59647;55.838;37.292;2023-06-26T10:45:36;13.77;;;4.85;;
71800;SDS011;59647;55.838;37.292;2023-06-26T10:48:03;14.75;;;5.25;;
71800;SDS011;59647;55.838;37.292;2023-06-26T10:50:31;10.77;;;5.63;;
71800;SDS011;59647;55.838;37.292;2023-06-26T10:53:43;8.45;;;4.80;;
71800;SDS011;59647;55.838;37.292;2023-06-26T10:55:49;12.63;;;5.60;;
71800;SDS011;59647;55.838;37.292;2023-06-26T11:03:38;14.18;;;5.18;;
71800;SDS011;59647;55.838;37.292;2023-06-26T11:06:10;11.48;;;5.45;;
71800;SDS011;59647;55.838;37.292;2023-06-26T11:08:46;11.98;;;4.60;;
71800;SDS011;59647;55.838;37.292;2023-06-26T11:11:19;13.68;;;5.60;;
71800;SDS011;59647;55.838;37.292;2023-06-26T11:13:46;10.80;;;5.35;;
71800;SDS011;59647;55.838;37.292;2023-06-26T11:16:13;16.35;;;4.82;;
71800;SDS011;59647;55.838;37.292;2023-06-26T11:18:41;7.90;;;5.18;;
71800;SDS011;59647;55.838;37.292;2023-06-26T11:21:08;12.07;;;5.53;;
71800;SDS011;59647;55.838;37.292;2023-06-26T11:23:36;10.50;;;4.72;;
71800;SDS011;59647;55.838;37.292;2023-06-26T11:26:18;10.30;;;4.65;;
71800;SDS011;59647;55.838;37.292;2023-06-26T11:28:54;9.05;;;4.47;;
71800;SDS011;59647;55.838;37.292;2023-06-26T11:31:39;9.13;;;4.90;;
71800;SDS011;59647;55.838;37.292;2023-06-26T11:34:07;8.73;;;4.95;;
71800;SDS011;59647;55.838;37.292;2023-06-26T11:36:35;12.63;;;5.38;;
71800;SDS011;59647;55.838;37.292;2023-06-26T11:39:03;11.73;;;4.82;;
71800;SDS011;59647;55.838;37.292;2023-06-26T11:41:34;10.65;;;5.32;;
71800;SDS011;59647;55.838;37.292;2023-06-26T11:44:05;12.55;;;5.00;;
71800;SDS011;59647;55.838;37.292;2023-06-26T11:46:33;10.35;;;5.13;;
71800;SDS011;59647;55.838;37.292;2023-06-26T11:49:04;13.38;;;4.95;;
71800;SDS011;59647;55.838;37.292;2023-06-26T11:51:30;10.40;;;5.10;;
71800;SDS011;59647;55.838;37.292;2023-06-26T11:53:56;10.85;;;4.53;;
71800;SDS011;59647;55.838;37.292;2023-06-26T11:56:22;8.43;;;4.57;;
71800;SDS011;59647;55.838;37.292;2023-06-26T11:58:55;8.38;;;4.35;;
71800;SDS011;59647;55.838;37.292;2023-06-26T12:01:36;13.05;;;4.47;;
71800;SDS011;59647;55.838;37.292;2023-06-26T12:04:05;15.88;;;5.38;;
71800;SDS011;59647;55.838;37.292;2023-06-26T12:06:39;11.73;;;4.85;;
71800;SDS011;59647;55.838;37.292;2023-06-26T12:09:08;7.53;;;4.50;;
71800;SDS011;59647;55.838;37.292;2023-06-26T12:11:38;9.60;;;4.97;;
71800;SDS011;59647;55.838;37.292;2023-06-26T12:14:08;9.30;;;4.38;;
71800;SDS011;59647;55.838;37.292;2023-06-26T12:16:35;11.27;;;4.20;;
71800;SDS011;59647;55.838;37.292;2023-06-26T12:19:05;4.57;;;2.88;;
71800;SDS011;59647;55.838;37.292;2023-06-26T12:24:04;6.75;;;4.10;;
71800;SDS011;59647;55.838;37.292;2023-06-26T12:26:31;6.47;;;4.05;;
71800;SDS011;59647;55.838;37.292;2023-06-26T12:29:07;7.97;;;3.60;;
71800;SDS011;59647;55.838;37.292;2023-06-26T12:31:35;8.00;;;3.53;;
71800;SDS011;59647;55.838;37.292;2023-06-26T12:34:01;8.30;;;4.10;;
71800;SDS011;59647;55.838;37.292;2023-06-26T12:36:39;7.65;;;3.97;;
71800;SDS011;59647;55.838;37.292;2023-06-26T12:39:17;4.90;;;3.42;;
71800;SDS011;59647;55.838;37.292;2023-06-26T12:41:48;8.25;;;3.72;;
71800;SDS011;59647;55.838;37.292;2023-06-26T12:44:19;7.45;;;3.83;;
71800;SDS011;59647;55.838;37.292;2023-06-26T12:46:53;6.63;;;3.97;;
71800;SDS011;59647;55.838;37.292;2023-06-26T12:52:03;7.00;;;3.03;;
71800;SDS011;59647;55.838;37.292;2023-06-26T12:54:30;6.53;;;2.92;;
71800;SDS011;59647;55.838;37.292;2023-06-26T12:56:57;5.25;;;3.30;;
71800;SDS011;59647;55.838;37.292;2023-06-26T12:59:23;6.70;;;3.20;;
71800;SDS011;59647;55.838;37.292;2023-06-26T13:01:49;6.55;;;3.72;;
71800;SDS011;59647;55.838;37.292;2023-06-26T13:04:20;6.00;;;3.35;;
71800;SDS011;59647;55.838;37.292;2023-06-26T13:06:46;10.35;;;3.65;;
71800;SDS011;59647;55.838;37.292;2023-06-26T13:09:12;8.10;;;3.60;;
71800;SDS011;59647;55.838;37.292;2023-06-26T13:11:40;8.00;;;3.20;;
71800;SDS011;59647;55.838;37.292;2023-06-26T13:14:06;5.93;;;3.60;;
71800;SDS011;59647;55.838;37.292;2023-06-26T13:16:34;7.80;;;3.55;;
71800;SDS011;59647;55.838;37.292;2023-06-26T13:19:00;12.55;;;4.32;;
71800;SDS011;59647;55.838;37.292;2023-06-26T13:21:27;5.82;;;3.70;;
71800;SDS011;59647;55.838;37.292;2023-06-26T13:23:54;7.70;;;4.45;;
71800;SDS011;59647;55.838;37.292;2023-06-26T13:26:21;7.72;;;3.72;;
71800;SDS011;59647;55.838;37.292;2023-06-26T13:28:48;8.43;;;4.05;;
71800;SDS011;59647;55.838;37.292;2023-06-26T13:31:15;7.85;;;4.38;;
71800;SDS011;59647;55.838;37.292;2023-06-26T13:33:41;7.55;;;4.10;;
71800;SDS011;59647;55.838;37.292;2023-06-26T13:36:07;8.98;;;4.00;;
71800;SDS011;59647;55.838;37.292;2023-06-26T13:38:33;7.55;;;4.65;;
71800;SDS011;59647;55.838;37.292;2023-06-26T13:40:59;11.30;;;4.50;;
71800;SDS011;59647;55.838;37.292;2023-06-26T13:43:27;6.28;;;3.80;;
71800;SDS011;59647;55.838;37.292;2023-06-26T13:45:54;14.23;;;4.70;;
71800;SDS011;59647;55.838;37.292;2023-06-26T13:48:20;11.32;;;4.75;;
71800;SDS011;59647;55.838;37.292;2023-06-26T13:50:46;15.40;;;4.78;;
71800;SDS011;59647;55.838;37.292;2023-06-26T13:53:12;16.50;;;4.85;;
71800;SDS011;59647;55.838;37.292;2023-06-26T13:55:39;5.45;;;3.63;;
71800;SDS011;59647;55.838;37.292;2023-06-26T13:58:06;7.20;;;4.22;;
71800;SDS011;59647;55.838;37.292;2023-06-26T14:00:33;13.85;;;3.55;;
71800;SDS011;59647;55.838;37.292;2023-06-26T14:03:02;9.13;;;3.95;;
71800;SDS011;59647;55.838;37.292;2023-06-26T14:05:32;7.18;;;3.65;;
71800;SDS011;59647;55.838;37.292;2023-06-26T14:07:58;11.13;;;4.45;;
71800;SDS011;59647;55.838;37.292;2023-06-26T14:10:24;8.75;;;4.00;;
71800;SDS011;59647;55.838;37.292;2023-06-26T14:12:50;7.43;;;3.88;;
71800;SDS011;59647;55.838;37.292;2023-06-26T14:15:16;10.95;;;4.20;;
71800;SDS011;59647;55.838;37.292;2023-06-26T14:17:42;8.63;;;4.10;;
71800;SDS011;59647;55.838;37.292;2023-06-26T14:20:09;7.43;;;4.03;;
71800;SDS011;59647;55.838;37.292;2023-06-26T14:22:41;6.68;;;3.83;;
71800;SDS011;59647;55.838;37.292;2023-06-26T14:25:08;8.55;;;4.15;;
71800;SDS011;59647;55.838;37.292;2023-06-26T14:27:35;7.70;;;3.92;;
71800;SDS011;59647;55.838;37.292;2023-06-26T14:30:01;8.27;;;4.00;;
71800;SDS011;59647;55.838;37.292;2023-06-26T14:32:31;6.15;;;4.18;;
71800;SDS011;59647;55.838;37.292;2023-06-26T14:34:59;12.20;;;4.35;;
71800;SDS011;59647;55.838;37.292;2023-06-26T14:37:25;9.05;;;4.10;;
71800;SDS011;59647;55.838;37.292;2023-06-26T14:39:52;9.10;;;4.97;;
71800;SDS011;59647;55.838;37.292;2023-06-26T14:42:18;6.57;;;3.75;;
71800;SDS011;59647;55.838;37.292;2023-06-26T14:44:44;8.15;;;4.35;;
71800;SDS011;59647;55.838;37.292;2023-06-26T14:47:12;8.05;;;3.88;;
71800;SDS011;59647;55.838;37.292;2023-06-26T14:49:40;6.78;;;3.92;;
71800;SDS011;59647;55.838;37.292;2023-06-26T14:52:06;6.88;;;3.50;;
71800;SDS011;59647;55.838;37.292;2023-06-26T14:54:32;7.70;;;3.90;;